Check out our new PWSWeather beta!
PWSweather.com
Personal Weather Stations
Station Observations
56KZ2SLOW
Millidgeville, Saint John, NB

MillidgevilleSaint John, NB

Lat: 45.288024, Lon: -66.116791

Elevation: 75

Station Type: Acurite 5-in-1

https://weather.patenteux.page/camera

High Low Average
Temperature 35.8°F2.1°C 23.2°F-4.9°C 32.6°F0.3°C
Dew Point 34.6°F1.4°C 22.2°F-5.4°C 30.7°F-0.7°C
Winds 9.0 mph 14.5 kmh Calm Calm 1.0 mph S1.6 kmh S
Wind Gusts -- -- --
Humidity 99% 76% 93%
Pressure 29.95 in1014.2 mb 29.56 in1001.0 mb -
Precipitation 0.05 in1.3 mm - -
Hour Temp Dew Point Humidity Winds Wind Gusts Pressure Precip Precip Rate Daily Precip Total
12:01 AM 30.4°F-0.9°C 25.2°F-3.8°C 81% 4.0 mph SW6.4 kmh SW -- 29.95 in1014.2 mb 0.00 in0.0 mm 0.00 in0.0 mm 0.00 in0.0 mm
12:06 AM 30.4°F-0.9°C 25.2°F-3.8°C 81% 3.0 mph NE4.8 kmh NE -- 29.95 in1014.2 mb 0.00 in0.0 mm 0.00 in0.0 mm 0.00 in0.0 mm
12:11 AM 30.4°F-0.9°C 25.2°F-3.8°C 81% 3.0 mph SE4.8 kmh SE -- 29.95 in1014.2 mb 0.00 in0.0 mm 0.00 in0.0 mm 0.00 in0.0 mm
12:16 AM 30.4°F-0.9°C 25.2°F-3.8°C 81% 2.0 mph WSW3.2 kmh WSW -- 29.94 in1013.9 mb 0.00 in0.0 mm 0.00 in0.0 mm 0.00 in0.0 mm
12:21 AM 30.6°F-0.8°C 25.7°F-3.5°C 82% 3.0 mph ENE4.8 kmh ENE -- 29.94 in1013.9 mb 0.00 in0.0 mm 0.00 in0.0 mm 0.00 in0.0 mm
12:26 AM 30.7°F-0.7°C 25.5°F-3.6°C 81% 1.0 mph W1.6 kmh W -- 29.94 in1013.9 mb 0.00 in0.0 mm 0.00 in0.0 mm 0.00 in0.0 mm
12:31 AM 30.6°F-0.8°C 25.7°F-3.5°C 82% 2.0 mph ESE3.2 kmh ESE -- 29.94 in1013.9 mb 0.00 in0.0 mm 0.00 in0.0 mm 0.00 in0.0 mm
12:36 AM 30.7°F-0.7°C 25.8°F-3.4°C 82% 3.0 mph NNW4.8 kmh NNW -- 29.93 in1013.5 mb 0.00 in0.0 mm 0.00 in0.0 mm 0.00 in0.0 mm
12:41 AM 30.9°F-0.6°C 26.0°F-3.3°C 82% 2.0 mph NNW3.2 kmh NNW -- 29.93 in1013.5 mb 0.00 in0.0 mm 0.00 in0.0 mm 0.00 in0.0 mm
12:46 AM 31.1°F-0.5°C 26.2°F-3.2°C 82% 1.0 mph NNW1.6 kmh NNW -- 29.92 in1013.2 mb 0.00 in0.0 mm 0.00 in0.0 mm 0.00 in0.0 mm
12:51 AM 31.1°F-0.5°C 26.2°F-3.2°C 82% 3.0 mph WSW4.8 kmh WSW -- 29.92 in1013.2 mb 0.00 in0.0 mm 0.00 in0.0 mm 0.00 in0.0 mm
12:56 AM 31.5°F-0.3°C 26.2°F-3.2°C 81% Calm Calm -- 29.92 in1013.2 mb 0.00 in0.0 mm 0.00 in0.0 mm 0.00 in0.0 mm
01:01 AM 31.6°F-0.2°C 26.1°F-3.3°C 80% 1.0 mph W1.6 kmh W -- 29.93 in1013.5 mb 0.00 in0.0 mm 0.00 in0.0 mm 0.00 in0.0 mm
01:06 AM 31.6°F-0.2°C 26.1°F-3.3°C 80% 6.0 mph W9.7 kmh W -- 29.93 in1013.5 mb 0.00 in0.0 mm 0.00 in0.0 mm 0.00 in0.0 mm
01:11 AM 32.2°F0.1°C 26.3°F-3.2°C 79% 5.0 mph WNW8.0 kmh WNW -- 29.92 in1013.2 mb 0.00 in0.0 mm 0.00 in0.0 mm 0.00 in0.0 mm
01:16 AM 32.5°F0.3°C 26.4°F-3.1°C 78% 3.0 mph W4.8 kmh W -- 29.93 in1013.5 mb 0.00 in0.0 mm 0.00 in0.0 mm 0.00 in0.0 mm
01:21 AM 32.5°F0.3°C 26.4°F-3.1°C 78% 2.0 mph NE3.2 kmh NE -- 29.92 in1013.2 mb 0.00 in0.0 mm 0.00 in0.0 mm 0.00 in0.0 mm
01:26 AM 32.5°F0.3°C 26.4°F-3.1°C 78% 2.0 mph W3.2 kmh W -- 29.92 in1013.2 mb 0.00 in0.0 mm 0.00 in0.0 mm 0.00 in0.0 mm
01:31 AM 32.5°F0.3°C 27.0°F-2.8°C 80% 2.0 mph W3.2 kmh W -- 29.92 in1013.2 mb 0.00 in0.0 mm 0.00 in0.0 mm 0.00 in0.0 mm
01:36 AM 32.5°F0.3°C 27.0°F-2.8°C 80% 5.0 mph S8.0 kmh S -- 29.91 in1012.9 mb 0.00 in0.0 mm 0.00 in0.0 mm 0.00 in0.0 mm
01:41 AM 32.7°F0.4°C 27.2°F-2.7°C 80% 3.0 mph WNW4.8 kmh WNW -- 29.91 in1012.9 mb 0.00 in0.0 mm 0.00 in0.0 mm 0.00 in0.0 mm
01:46 AM 32.7°F0.4°C 27.2°F-2.7°C 80% 3.0 mph NW4.8 kmh NW -- 29.90 in1012.5 mb 0.00 in0.0 mm 0.00 in0.0 mm 0.00 in0.0 mm
01:51 AM 32.9°F0.5°C 27.3°F-2.6°C 80% 5.0 mph S8.0 kmh S -- 29.90 in1012.5 mb 0.00 in0.0 mm 0.00 in0.0 mm 0.00 in0.0 mm
01:56 AM 32.9°F0.5°C 27.6°F-2.4°C 81% 4.0 mph WNW6.4 kmh WNW -- 29.90 in1012.5 mb 0.00 in0.0 mm 0.00 in0.0 mm 0.00 in0.0 mm
02:01 AM 33.1°F0.6°C 27.8°F-2.3°C 81% 4.0 mph W6.4 kmh W -- 29.89 in1012.2 mb 0.00 in0.0 mm 0.00 in0.0 mm 0.00 in0.0 mm
02:06 AM 33.1°F0.6°C 28.1°F-2.2°C 82% 3.0 mph SW4.8 kmh SW -- 29.89 in1012.2 mb 0.00 in0.0 mm 0.00 in0.0 mm 0.00 in0.0 mm
02:11 AM 33.1°F0.6°C 28.1°F-2.2°C 82% 2.0 mph S3.2 kmh S -- 29.89 in1012.2 mb 0.00 in0.0 mm 0.00 in0.0 mm 0.00 in0.0 mm
02:16 AM 33.3°F0.7°C 28.6°F-1.9°C 83% 2.0 mph 3.2 kmh -- 29.89 in1012.2 mb 0.00 in0.0 mm 0.00 in0.0 mm 0.00 in0.0 mm
02:21 AM 33.3°F0.7°C 28.9°F-1.7°C 84% 2.0 mph SW3.2 kmh SW -- 29.89 in1012.2 mb 0.00 in0.0 mm 0.00 in0.0 mm 0.00 in0.0 mm
02:26 AM 33.4°F0.8°C 29.1°F-1.6°C 84% 3.0 mph NE4.8 kmh NE -- 29.89 in1012.2 mb 0.00 in0.0 mm 0.00 in0.0 mm 0.00 in0.0 mm
02:31 AM 33.6°F0.9°C 29.2°F-1.6°C 84% 3.0 mph SSW4.8 kmh SSW -- 29.89 in1012.2 mb 0.00 in0.0 mm 0.00 in0.0 mm 0.00 in0.0 mm
02:36 AM 33.8°F1.0°C 29.4°F-1.4°C 84% 4.0 mph 6.4 kmh -- 29.89 in1012.2 mb 0.00 in0.0 mm 0.00 in0.0 mm 0.00 in0.0 mm
02:41 AM 34.0°F1.1°C 29.6°F-1.3°C 84% 5.0 mph SSW8.0 kmh SSW -- 29.90 in1012.5 mb 0.00 in0.0 mm 0.00 in0.0 mm 0.00 in0.0 mm
02:46 AM 34.0°F1.1°C 29.6°F-1.3°C 84% 2.0 mph WNW3.2 kmh WNW -- 29.90 in1012.5 mb 0.00 in0.0 mm 0.00 in0.0 mm 0.00 in0.0 mm
02:51 AM 34.0°F1.1°C 29.9°F-1.2°C 85% 4.0 mph WNW6.4 kmh WNW -- 29.90 in1012.5 mb 0.00 in0.0 mm 0.00 in0.0 mm 0.00 in0.0 mm
02:56 AM 34.0°F1.1°C 29.9°F-1.2°C 85% 2.0 mph S3.2 kmh S -- 29.90 in1012.5 mb 0.00 in0.0 mm 0.00 in0.0 mm 0.00 in0.0 mm
03:01 AM 34.2°F1.2°C 30.1°F-1.1°C 85% 1.0 mph 1.6 kmh -- 29.90 in1012.5 mb 0.00 in0.0 mm 0.00 in0.0 mm 0.00 in0.0 mm
03:06 AM 34.2°F1.2°C 29.8°F-1.2°C 84% 1.0 mph E1.6 kmh E -- 29.90 in1012.5 mb 0.00 in0.0 mm 0.00 in0.0 mm 0.00 in0.0 mm
03:11 AM 34.2°F1.2°C 29.8°F-1.2°C 84% 1.0 mph W1.6 kmh W -- 29.90 in1012.5 mb 0.00 in0.0 mm 0.00 in0.0 mm 0.00 in0.0 mm
03:16 AM 34.2°F1.2°C 29.5°F-1.4°C 83% 2.0 mph SW3.2 kmh SW -- 29.89 in1012.2 mb 0.00 in0.0 mm 0.00 in0.0 mm 0.00 in0.0 mm
03:21 AM 34.2°F1.2°C 29.5°F-1.4°C 83% 3.0 mph WSW4.8 kmh WSW -- 29.89 in1012.2 mb 0.00 in0.0 mm 0.00 in0.0 mm 0.00 in0.0 mm
03:26 AM 34.2°F1.2°C 29.5°F-1.4°C 83% Calm Calm -- 29.89 in1012.2 mb 0.00 in0.0 mm 0.00 in0.0 mm 0.00 in0.0 mm
03:31 AM 34.3°F1.3°C 29.3°F-1.5°C 82% 3.0 mph SW4.8 kmh SW -- 29.89 in1012.2 mb 0.00 in0.0 mm 0.00 in0.0 mm 0.00 in0.0 mm
03:36 AM 34.3°F1.3°C 29.3°F-1.5°C 82% 2.0 mph SSW3.2 kmh SSW -- 29.88 in1011.9 mb 0.00 in0.0 mm 0.00 in0.0 mm 0.00 in0.0 mm
03:41 AM 34.3°F1.3°C 29.3°F-1.5°C 82% 1.0 mph SW1.6 kmh SW -- 29.88 in1011.9 mb 0.00 in0.0 mm 0.00 in0.0 mm 0.00 in0.0 mm
03:46 AM 34.3°F1.3°C 29.3°F-1.5°C 82% 1.0 mph NNW1.6 kmh NNW -- 29.87 in1011.5 mb 0.00 in0.0 mm 0.00 in0.0 mm 0.00 in0.0 mm
03:51 AM 34.3°F1.3°C 29.7°F-1.3°C 83% 2.0 mph NNW3.2 kmh NNW -- 29.87 in1011.5 mb 0.00 in0.0 mm 0.00 in0.0 mm 0.00 in0.0 mm
03:56 AM 34.3°F1.3°C 29.3°F-1.5°C 82% 3.0 mph W4.8 kmh W -- 29.87 in1011.5 mb 0.00 in0.0 mm 0.00 in0.0 mm 0.00 in0.0 mm
04:01 AM 34.3°F1.3°C 29.3°F-1.5°C 82% Calm Calm -- 29.86 in1011.2 mb 0.00 in0.0 mm 0.00 in0.0 mm 0.00 in0.0 mm
04:06 AM 34.3°F1.3°C 29.7°F-1.3°C 83% 2.0 mph W3.2 kmh W -- 29.86 in1011.2 mb 0.00 in0.0 mm 0.00 in0.0 mm 0.00 in0.0 mm
04:11 AM 34.3°F1.3°C 29.7°F-1.3°C 83% 1.0 mph WNW1.6 kmh WNW -- 29.85 in1010.8 mb 0.00 in0.0 mm 0.00 in0.0 mm 0.00 in0.0 mm
04:16 AM 34.5°F1.4°C 29.8°F-1.2°C 83% 1.0 mph NW1.6 kmh NW -- 29.85 in1010.8 mb 0.00 in0.0 mm 0.00 in0.0 mm 0.00 in0.0 mm
04:21 AM 34.5°F1.4°C 29.8°F-1.2°C 83% 3.0 mph W4.8 kmh W -- 29.84 in1010.5 mb 0.00 in0.0 mm 0.00 in0.0 mm 0.00 in0.0 mm
04:26 AM 34.7°F1.5°C 30.0°F-1.1°C 83% 2.0 mph SSW3.2 kmh SSW -- 29.84 in1010.5 mb 0.00 in0.0 mm 0.00 in0.0 mm 0.00 in0.0 mm
04:31 AM 34.7°F1.5°C 29.7°F-1.3°C 82% 2.0 mph W3.2 kmh W -- 29.84 in1010.5 mb 0.00 in0.0 mm 0.00 in0.0 mm 0.00 in0.0 mm
04:36 AM 34.7°F1.5°C 30.0°F-1.1°C 83% 1.0 mph W1.6 kmh W -- 29.84 in1010.5 mb 0.00 in0.0 mm 0.00 in0.0 mm 0.00 in0.0 mm
04:41 AM 34.7°F1.5°C 30.0°F-1.1°C 83% 3.0 mph S4.8 kmh S -- 29.83 in1010.2 mb 0.00 in0.0 mm 0.00 in0.0 mm 0.00 in0.0 mm
04:46 AM 34.7°F1.5°C 30.0°F-1.1°C 83% 4.0 mph SSW6.4 kmh SSW -- 29.84 in1010.5 mb 0.00 in0.0 mm 0.00 in0.0 mm 0.00 in0.0 mm
04:51 AM 34.7°F1.5°C 29.7°F-1.3°C 82% 3.0 mph W4.8 kmh W -- 29.84 in1010.5 mb 0.00 in0.0 mm 0.00 in0.0 mm 0.00 in0.0 mm
04:56 AM 34.9°F1.6°C 29.6°F-1.3°C 81% 4.0 mph W6.4 kmh W -- 29.84 in1010.5 mb 0.00 in0.0 mm 0.00 in0.0 mm 0.00 in0.0 mm
05:01 AM 34.9°F1.6°C 29.3°F-1.5°C 80% 9.0 mph SSW14.5 kmh SSW -- 29.84 in1010.5 mb 0.00 in0.0 mm 0.00 in0.0 mm 0.00 in0.0 mm
05:06 AM 34.9°F1.6°C 29.0°F-1.7°C 79% 9.0 mph WNW14.5 kmh WNW -- 29.84 in1010.5 mb 0.00 in0.0 mm 0.00 in0.0 mm 0.00 in0.0 mm
05:11 AM 34.9°F1.6°C 29.0°F-1.7°C 79% 3.0 mph W4.8 kmh W -- 29.84 in1010.5 mb 0.00 in0.0 mm 0.00 in0.0 mm 0.00 in0.0 mm
05:16 AM 34.9°F1.6°C 29.0°F-1.7°C 79% 4.0 mph W6.4 kmh W -- 29.85 in1010.8 mb 0.00 in0.0 mm 0.00 in0.0 mm 0.00 in0.0 mm
05:21 AM 34.9°F1.6°C 28.6°F-1.9°C 78% 7.0 mph NE11.3 kmh NE -- 29.84 in1010.5 mb 0.00 in0.0 mm 0.00 in0.0 mm 0.00 in0.0 mm
05:31 AM 34.9°F1.6°C 28.6°F-1.9°C 78% 2.0 mph W3.2 kmh W -- 29.84 in1010.5 mb 0.00 in0.0 mm 0.00 in0.0 mm 0.00 in0.0 mm
05:41 AM 34.9°F1.6°C 28.6°F-1.9°C 78% 3.0 mph WSW4.8 kmh WSW -- 29.84 in1010.5 mb 0.00 in0.0 mm 0.00 in0.0 mm 0.00 in0.0 mm
05:46 AM 34.9°F1.6°C 28.6°F-1.9°C 78% 3.0 mph NNE4.8 kmh NNE -- 29.84 in1010.5 mb 0.00 in0.0 mm 0.00 in0.0 mm 0.00 in0.0 mm
05:51 AM 35.1°F1.7°C 28.5°F-1.9°C 77% 4.0 mph W6.4 kmh W -- 29.84 in1010.5 mb 0.00 in0.0 mm 0.00 in0.0 mm 0.00 in0.0 mm
05:56 AM 35.1°F1.7°C 28.5°F-1.9°C 77% 2.0 mph WSW3.2 kmh WSW -- 29.83 in1010.2 mb 0.00 in0.0 mm 0.00 in0.0 mm 0.00 in0.0 mm
06:01 AM 35.2°F1.8°C 28.3°F-2.1°C 76% 2.0 mph ESE3.2 kmh ESE -- 29.83 in1010.2 mb 0.00 in0.0 mm 0.00 in0.0 mm 0.00 in0.0 mm
06:06 AM 35.2°F1.8°C 28.7°F-1.8°C 77% 2.0 mph W3.2 kmh W -- 29.83 in1010.2 mb 0.00 in0.0 mm 0.00 in0.0 mm 0.00 in0.0 mm
06:11 AM 35.2°F1.8°C 28.7°F-1.8°C 77% 2.0 mph WNW3.2 kmh WNW -- 29.82 in1009.8 mb 0.00 in0.0 mm 0.00 in0.0 mm 0.00 in0.0 mm
06:16 AM 35.2°F1.8°C 29.0°F-1.7°C 78% 2.0 mph 3.2 kmh -- 29.83 in1010.2 mb 0.00 in0.0 mm 0.00 in0.0 mm 0.00 in0.0 mm
06:21 AM 35.2°F1.8°C 29.0°F-1.7°C 78% 1.0 mph WNW1.6 kmh WNW -- 29.82 in1009.8 mb 0.00 in0.0 mm 0.00 in0.0 mm 0.00 in0.0 mm
06:26 AM 35.2°F1.8°C 29.0°F-1.7°C 78% 2.0 mph NW3.2 kmh NW -- 29.82 in1009.8 mb 0.00 in0.0 mm 0.00 in0.0 mm 0.00 in0.0 mm
06:31 AM 35.1°F1.7°C 28.8°F-1.8°C 78% 2.0 mph W3.2 kmh W -- 29.81 in1009.5 mb 0.00 in0.0 mm 0.00 in0.0 mm 0.00 in0.0 mm
06:36 AM 35.1°F1.7°C 29.1°F-1.6°C 79% 1.0 mph WNW1.6 kmh WNW -- 29.80 in1009.1 mb 0.00 in0.0 mm 0.00 in0.0 mm 0.00 in0.0 mm
06:41 AM 34.9°F1.6°C 29.3°F-1.5°C 80% 1.0 mph NNW1.6 kmh NNW -- 29.79 in1008.8 mb 0.00 in0.0 mm 0.00 in0.0 mm 0.00 in0.0 mm
06:46 AM 34.9°F1.6°C 29.3°F-1.5°C 80% 1.0 mph W1.6 kmh W -- 29.79 in1008.8 mb 0.00 in0.0 mm 0.00 in0.0 mm 0.00 in0.0 mm
06:51 AM 35.1°F1.7°C 29.7°F-1.3°C 81% 2.0 mph WSW3.2 kmh WSW -- 29.80 in1009.1 mb 0.00 in0.0 mm 0.00 in0.0 mm 0.00 in0.0 mm
06:56 AM 35.1°F1.7°C 30.4°F-0.9°C 83% 4.0 mph NE6.4 kmh NE -- 29.80 in1009.1 mb 0.00 in0.0 mm 0.00 in0.0 mm 0.00 in0.0 mm
07:01 AM 35.2°F1.8°C 30.8°F-0.7°C 84% 5.0 mph SW8.0 kmh SW -- 29.80 in1009.1 mb 0.00 in0.0 mm 0.00 in0.0 mm 0.00 in0.0 mm
07:06 AM 35.4°F1.9°C 31.3°F-0.4°C 85% 4.0 mph W6.4 kmh W -- 29.81 in1009.5 mb 0.00 in0.0 mm 0.00 in0.0 mm 0.00 in0.0 mm
07:11 AM 35.4°F1.9°C 31.9°F-0.1°C 87% 2.0 mph SSW3.2 kmh SSW -- 29.80 in1009.1 mb 0.00 in0.0 mm 0.00 in0.0 mm 0.00 in0.0 mm
07:16 AM 35.4°F1.9°C 31.9°F-0.1°C 87% 3.0 mph WNW4.8 kmh WNW -- 29.81 in1009.5 mb 0.00 in0.0 mm 0.00 in0.0 mm 0.00 in0.0 mm
07:21 AM 35.1°F1.7°C 32.4°F0.2°C 90% 2.0 mph WNW3.2 kmh WNW -- 29.81 in1009.5 mb 0.00 in0.0 mm 0.00 in0.0 mm 0.00 in0.0 mm
07:26 AM 34.7°F1.5°C 32.9°F0.5°C 93% 2.0 mph WNW3.2 kmh WNW -- 29.80 in1009.1 mb 0.00 in0.0 mm 0.00 in0.0 mm 0.00 in0.0 mm
07:31 AM 34.2°F1.2°C 32.9°F0.5°C 95% 3.0 mph W4.8 kmh W -- 29.78 in1008.5 mb 0.00 in0.0 mm 0.00 in0.0 mm 0.00 in0.0 mm
07:36 AM 33.8°F1.0°C 33.0°F0.6°C 97% 2.0 mph W3.2 kmh W -- 29.79 in1008.8 mb 0.00 in0.0 mm 0.00 in0.0 mm 0.00 in0.0 mm
07:41 AM 33.8°F1.0°C 33.3°F0.7°C 98% Calm Calm -- 29.79 in1008.8 mb 0.00 in0.0 mm 0.00 in0.0 mm 0.00 in0.0 mm
07:46 AM 33.6°F0.9°C 33.1°F0.6°C 98% Calm Calm -- 29.78 in1008.5 mb 0.00 in0.0 mm 0.00 in0.0 mm 0.00 in0.0 mm
07:51 AM 33.4°F0.8°C 32.9°F0.5°C 98% Calm Calm -- 29.78 in1008.5 mb 0.00 in0.0 mm 0.00 in0.0 mm 0.00 in0.0 mm
07:56 AM 33.3°F0.7°C 33.0°F0.6°C 99% Calm Calm -- 29.79 in1008.8 mb 0.00 in0.0 mm 0.00 in0.0 mm 0.00 in0.0 mm
08:01 AM 33.1°F0.6°C 32.8°F0.4°C 99% 2.0 mph W3.2 kmh W -- 29.79 in1008.8 mb 0.00 in0.0 mm 0.00 in0.0 mm 0.00 in0.0 mm
08:06 AM 33.1°F0.6°C 32.8°F0.4°C 99% Calm Calm -- 29.79 in1008.8 mb 0.00 in0.0 mm 0.00 in0.0 mm 0.00 in0.0 mm
08:11 AM 32.9°F0.5°C 32.6°F0.3°C 99% 4.0 mph W6.4 kmh W -- 29.79 in1008.8 mb 0.00 in0.0 mm 0.00 in0.0 mm 0.00 in0.0 mm
08:16 AM 32.9°F0.5°C 32.6°F0.3°C 99% 3.0 mph W4.8 kmh W -- 29.78 in1008.5 mb 0.00 in0.0 mm 0.00 in0.0 mm 0.00 in0.0 mm
08:21 AM 32.7°F0.4°C 32.5°F0.3°C 99% 3.0 mph W4.8 kmh W -- 29.78 in1008.5 mb 0.00 in0.0 mm 0.00 in0.0 mm 0.00 in0.0 mm
08:26 AM 32.7°F0.4°C 32.5°F0.3°C 99% 1.0 mph 1.6 kmh -- 29.78 in1008.5 mb 0.00 in0.0 mm 0.00 in0.0 mm 0.00 in0.0 mm
08:31 AM 32.7°F0.4°C 32.5°F0.3°C 99% 1.0 mph SE1.6 kmh SE -- 29.78 in1008.5 mb 0.00 in0.0 mm 0.00 in0.0 mm 0.00 in0.0 mm
08:36 AM 32.7°F0.4°C 32.5°F0.3°C 99% 2.0 mph W3.2 kmh W -- 29.79 in1008.8 mb 0.00 in0.0 mm 0.00 in0.0 mm 0.00 in0.0 mm
08:41 AM 32.7°F0.4°C 32.5°F0.3°C 99% Calm Calm -- 29.78 in1008.5 mb 0.00 in0.0 mm 0.00 in0.0 mm 0.00 in0.0 mm
08:46 AM 32.7°F0.4°C 32.5°F0.3°C 99% Calm Calm -- 29.78 in1008.5 mb 0.00 in0.0 mm 0.00 in0.0 mm 0.00 in0.0 mm
08:51 AM 32.7°F0.4°C 32.5°F0.3°C 99% Calm Calm -- 29.78 in1008.5 mb 0.00 in0.0 mm 0.00 in0.0 mm 0.00 in0.0 mm
08:56 AM 32.7°F0.4°C 32.5°F0.3°C 99% 1.0 mph W1.6 kmh W -- 29.77 in1008.1 mb 0.00 in0.0 mm 0.00 in0.0 mm 0.00 in0.0 mm
09:06 AM 32.7°F0.4°C 32.5°F0.3°C 99% Calm Calm -- 29.77 in1008.1 mb 0.00 in0.0 mm 0.00 in0.0 mm 0.00 in0.0 mm
09:11 AM 32.7°F0.4°C 32.5°F0.3°C 99% Calm Calm -- 29.78 in1008.5 mb 0.00 in0.0 mm 0.00 in0.0 mm 0.00 in0.0 mm
09:16 AM 32.9°F0.5°C 32.6°F0.3°C 99% Calm Calm -- 29.78 in1008.5 mb 0.00 in0.0 mm 0.00 in0.0 mm 0.00 in0.0 mm
09:21 AM 32.9°F0.5°C 32.6°F0.3°C 99% Calm Calm -- 29.77 in1008.1 mb 0.00 in0.0 mm 0.00 in0.0 mm 0.00 in0.0 mm
09:26 AM 33.1°F0.6°C 32.8°F0.4°C 99% Calm Calm -- 29.76 in1007.8 mb 0.00 in0.0 mm 0.00 in0.0 mm 0.00 in0.0 mm
09:31 AM 32.9°F0.5°C 32.6°F0.3°C 99% Calm Calm -- 29.75 in1007.5 mb 0.00 in0.0 mm 0.00 in0.0 mm 0.00 in0.0 mm
09:36 AM 33.1°F0.6°C 32.8°F0.4°C 99% Calm Calm -- 29.75 in1007.5 mb 0.00 in0.0 mm 0.00 in0.0 mm 0.00 in0.0 mm
09:41 AM 33.1°F0.6°C 32.8°F0.4°C 99% Calm Calm -- 29.74 in1007.1 mb 0.00 in0.0 mm 0.00 in0.0 mm 0.00 in0.0 mm
09:46 AM 33.3°F0.7°C 33.0°F0.6°C 99% Calm Calm -- 29.74 in1007.1 mb 0.00 in0.0 mm 0.00 in0.0 mm 0.00 in0.0 mm
09:51 AM 33.1°F0.6°C 32.8°F0.4°C 99% Calm Calm -- 29.74 in1007.1 mb 0.00 in0.0 mm 0.00 in0.0 mm 0.00 in0.0 mm
09:56 AM 33.1°F0.6°C 32.8°F0.4°C 99% Calm Calm -- 29.73 in1006.8 mb 0.00 in0.0 mm 0.00 in0.0 mm 0.00 in0.0 mm
10:01 AM 33.3°F0.7°C 33.0°F0.6°C 99% Calm Calm -- 29.73 in1006.8 mb 0.00 in0.0 mm 0.00 in0.0 mm 0.00 in0.0 mm
10:11 AM 33.4°F0.8°C 33.2°F0.7°C 99% Calm Calm -- 29.72 in1006.4 mb 0.00 in0.0 mm 0.00 in0.0 mm 0.00 in0.0 mm
10:16 AM 33.6°F0.9°C 33.4°F0.8°C 99% Calm Calm -- 29.72 in1006.4 mb 0.00 in0.0 mm 0.00 in0.0 mm 0.00 in0.0 mm
10:21 AM 33.8°F1.0°C 33.5°F0.8°C 99% Calm Calm -- 29.71 in1006.1 mb 0.00 in0.0 mm 0.00 in0.0 mm 0.00 in0.0 mm
10:26 AM 33.8°F1.0°C 33.5°F0.8°C 99% Calm Calm -- 29.71 in1006.1 mb 0.00 in0.0 mm 0.00 in0.0 mm 0.00 in0.0 mm
10:36 AM 33.8°F1.0°C 33.5°F0.8°C 99% Calm Calm -- 29.70 in1005.8 mb 0.00 in0.0 mm 0.00 in0.0 mm 0.00 in0.0 mm
10:41 AM 33.6°F0.9°C 33.4°F0.8°C 99% Calm Calm -- 29.71 in1006.1 mb 0.00 in0.0 mm 0.00 in0.0 mm 0.00 in0.0 mm
10:46 AM 33.6°F0.9°C 33.4°F0.8°C 99% Calm Calm -- 29.72 in1006.4 mb 0.00 in0.0 mm 0.00 in0.0 mm 0.00 in0.0 mm
10:51 AM 33.8°F1.0°C 33.5°F0.8°C 99% Calm Calm -- 29.72 in1006.4 mb 0.00 in0.0 mm 0.00 in0.0 mm 0.00 in0.0 mm
10:56 AM 34.2°F1.2°C 33.9°F1.1°C 99% Calm Calm -- 29.71 in1006.1 mb 0.00 in0.0 mm 0.00 in0.0 mm 0.00 in0.0 mm
11:01 AM 34.5°F1.4°C 34.3°F1.3°C 99% Calm Calm -- 29.70 in1005.8 mb 0.00 in0.0 mm 0.00 in0.0 mm 0.00 in0.0 mm
11:06 AM 34.7°F1.5°C 34.4°F1.3°C 99% Calm Calm -- 29.70 in1005.8 mb 0.00 in0.0 mm 0.00 in0.0 mm 0.00 in0.0 mm
11:11 AM 34.7°F1.5°C 34.2°F1.2°C 98% Calm Calm -- 29.70 in1005.8 mb 0.00 in0.0 mm 0.00 in0.0 mm 0.00 in0.0 mm
11:16 AM 34.7°F1.5°C 34.2°F1.2°C 98% Calm Calm -- 29.70 in1005.8 mb 0.00 in0.0 mm 0.00 in0.0 mm 0.00 in0.0 mm
11:21 AM 34.3°F1.3°C 33.8°F1.0°C 98% Calm Calm -- 29.70 in1005.8 mb 0.00 in0.0 mm 0.00 in0.0 mm 0.00 in0.0 mm
11:26 AM 34.2°F1.2°C 33.6°F0.9°C 98% Calm Calm -- 29.70 in1005.8 mb 0.00 in0.0 mm 0.00 in0.0 mm 0.00 in0.0 mm
11:31 AM 34.5°F1.4°C 34.0°F1.1°C 98% Calm Calm -- 29.69 in1005.4 mb 0.00 in0.0 mm 0.00 in0.0 mm 0.00 in0.0 mm
11:36 AM 34.7°F1.5°C 34.2°F1.2°C 98% Calm Calm -- 29.68 in1005.1 mb 0.00 in0.0 mm 0.00 in0.0 mm 0.00 in0.0 mm
11:41 AM 34.3°F1.3°C 33.8°F1.0°C 98% Calm Calm -- 29.69 in1005.4 mb 0.00 in0.0 mm 0.00 in0.0 mm 0.00 in0.0 mm
11:46 AM 34.2°F1.2°C 33.6°F0.9°C 98% Calm Calm -- 29.70 in1005.8 mb 0.00 in0.0 mm 0.00 in0.0 mm 0.00 in0.0 mm
11:51 AM 34.5°F1.4°C 34.3°F1.3°C 99% Calm Calm -- 29.71 in1006.1 mb 0.00 in0.0 mm 0.00 in0.0 mm 0.00 in0.0 mm
11:56 AM 34.5°F1.4°C 33.7°F0.9°C 97% Calm Calm -- 29.69 in1005.4 mb 0.00 in0.0 mm 0.00 in0.0 mm 0.00 in0.0 mm
12:01 PM 35.2°F1.8°C 34.5°F1.4°C 97% Calm Calm -- 29.68 in1005.1 mb 0.00 in0.0 mm 0.00 in0.0 mm 0.00 in0.0 mm
12:06 PM 35.2°F1.8°C 34.2°F1.2°C 96% Calm Calm -- 29.68 in1005.1 mb 0.00 in0.0 mm 0.00 in0.0 mm 0.00 in0.0 mm
12:11 PM 35.2°F1.8°C 34.2°F1.2°C 96% Calm Calm -- 29.67 in1004.7 mb 0.00 in0.0 mm 0.00 in0.0 mm 0.00 in0.0 mm
12:16 PM 35.2°F1.8°C 34.2°F1.2°C 96% Calm Calm -- 29.67 in1004.7 mb 0.00 in0.0 mm 0.00 in0.0 mm 0.00 in0.0 mm
12:21 PM 35.2°F1.8°C 34.2°F1.2°C 96% Calm Calm -- 29.68 in1005.1 mb 0.00 in0.0 mm 0.00 in0.0 mm 0.00 in0.0 mm
12:26 PM 35.6°F2.0°C 34.6°F1.4°C 96% Calm Calm -- 29.67 in1004.7 mb 0.00 in0.0 mm 0.00 in0.0 mm 0.00 in0.0 mm
12:31 PM 35.2°F1.8°C 34.2°F1.2°C 96% Calm Calm -- 29.67 in1004.7 mb 0.00 in0.0 mm 0.00 in0.0 mm 0.00 in0.0 mm
12:36 PM 35.2°F1.8°C 34.2°F1.2°C 96% Calm Calm -- 29.66 in1004.4 mb 0.00 in0.0 mm 0.00 in0.0 mm 0.00 in0.0 mm
12:41 PM 35.6°F2.0°C 34.6°F1.4°C 96% Calm Calm -- 29.66 in1004.4 mb 0.00 in0.0 mm 0.00 in0.0 mm 0.00 in0.0 mm
12:46 PM 35.8°F2.1°C 34.5°F1.4°C 95% Calm Calm -- 29.65 in1004.1 mb 0.00 in0.0 mm 0.00 in0.0 mm 0.00 in0.0 mm
12:51 PM 35.6°F2.0°C 34.3°F1.3°C 95% Calm Calm -- 29.64 in1003.7 mb 0.00 in0.0 mm 0.00 in0.0 mm 0.00 in0.0 mm
12:56 PM 34.5°F1.4°C 33.7°F0.9°C 97% Calm Calm -- 29.65 in1004.1 mb 0.00 in0.0 mm 0.00 in0.0 mm 0.00 in0.0 mm
01:01 PM 35.1°F1.7°C 33.8°F1.0°C 95% 1.0 mph NE1.6 kmh NE -- 29.64 in1003.7 mb 0.00 in0.0 mm 0.00 in0.0 mm 0.00 in0.0 mm
01:06 PM 34.5°F1.4°C 33.5°F0.8°C 96% Calm Calm -- 29.62 in1003.0 mb 0.00 in0.0 mm 0.00 in0.0 mm 0.00 in0.0 mm
01:11 PM 35.8°F2.1°C 34.2°F1.2°C 94% Calm Calm -- 29.62 in1003.0 mb 0.00 in0.0 mm 0.00 in0.0 mm 0.00 in0.0 mm
01:16 PM 35.8°F2.1°C 34.2°F1.2°C 94% Calm Calm -- 29.61 in1002.7 mb 0.00 in0.0 mm 0.00 in0.0 mm 0.00 in0.0 mm
01:21 PM 33.8°F1.0°C 33.5°F0.8°C 99% Calm Calm -- 29.62 in1003.0 mb 0.00 in0.0 mm 0.00 in0.0 mm 0.00 in0.0 mm
01:26 PM 33.8°F1.0°C 33.5°F0.8°C 99% Calm Calm -- 29.62 in1003.0 mb 0.00 in0.0 mm 0.00 in0.0 mm 0.00 in0.0 mm
01:31 PM 34.2°F1.2°C 33.9°F1.1°C 99% Calm Calm -- 29.61 in1002.7 mb 0.00 in0.0 mm 0.00 in0.0 mm 0.00 in0.0 mm
01:36 PM 34.3°F1.3°C 34.1°F1.2°C 99% Calm Calm -- 29.60 in1002.4 mb 0.00 in0.0 mm 0.00 in0.0 mm 0.00 in0.0 mm
01:41 PM 34.0°F1.1°C 33.7°F0.9°C 99% 1.0 mph W1.6 kmh W -- 29.60 in1002.4 mb 0.00 in0.0 mm 0.00 in0.0 mm 0.00 in0.0 mm
01:46 PM 34.0°F1.1°C 33.7°F0.9°C 99% 1.0 mph WNW1.6 kmh WNW -- 29.61 in1002.7 mb 0.00 in0.0 mm 0.00 in0.0 mm 0.00 in0.0 mm
01:51 PM 33.8°F1.0°C 33.5°F0.8°C 99% Calm Calm -- 29.60 in1002.4 mb 0.00 in0.0 mm 0.00 in0.0 mm 0.00 in0.0 mm
01:56 PM 34.0°F1.1°C 33.2°F0.7°C 97% Calm Calm -- 29.58 in1001.7 mb 0.00 in0.0 mm 0.00 in0.0 mm 0.00 in0.0 mm
02:01 PM 34.2°F1.2°C 33.4°F0.8°C 97% 1.0 mph NW1.6 kmh NW -- 29.58 in1001.7 mb 0.00 in0.0 mm 0.00 in0.0 mm 0.00 in0.0 mm
02:06 PM 34.0°F1.1°C 33.2°F0.7°C 97% Calm Calm -- 29.59 in1002.0 mb 0.00 in0.0 mm 0.00 in0.0 mm 0.00 in0.0 mm
02:11 PM 34.0°F1.1°C 33.5°F0.8°C 98% Calm Calm -- 29.59 in1002.0 mb 0.00 in0.0 mm 0.00 in0.0 mm 0.00 in0.0 mm
02:16 PM 33.8°F1.0°C 33.5°F0.8°C 99% Calm Calm -- 29.59 in1002.0 mb 0.00 in0.0 mm 0.00 in0.0 mm 0.00 in0.0 mm
02:21 PM 34.0°F1.1°C 33.7°F0.9°C 99% Calm Calm -- 29.59 in1002.0 mb 0.00 in0.0 mm 0.00 in0.0 mm 0.00 in0.0 mm
02:26 PM 33.8°F1.0°C 33.3°F0.7°C 98% Calm Calm -- 29.59 in1002.0 mb 0.00 in0.0 mm 0.00 in0.0 mm 0.00 in0.0 mm
02:31 PM 33.6°F0.9°C 33.1°F0.6°C 98% 1.0 mph SW1.6 kmh SW -- 29.59 in1002.0 mb 0.00 in0.0 mm 0.00 in0.0 mm 0.00 in0.0 mm
02:36 PM 33.6°F0.9°C 33.4°F0.8°C 99% Calm Calm -- 29.58 in1001.7 mb 0.00 in0.0 mm 0.00 in0.0 mm 0.00 in0.0 mm
02:41 PM 33.8°F1.0°C 33.5°F0.8°C 99% Calm Calm -- 29.58 in1001.7 mb 0.00 in0.0 mm 0.00 in0.0 mm 0.00 in0.0 mm
02:46 PM 33.8°F1.0°C 33.5°F0.8°C 99% Calm Calm -- 29.59 in1002.0 mb 0.00 in0.0 mm 0.00 in0.0 mm 0.00 in0.0 mm
02:51 PM 33.8°F1.0°C 33.3°F0.7°C 98% Calm Calm -- 29.58 in1001.7 mb 0.00 in0.0 mm 0.00 in0.0 mm 0.00 in0.0 mm
02:56 PM 33.6°F0.9°C 33.1°F0.6°C 98% Calm Calm -- 29.59 in1002.0 mb 0.00 in0.0 mm 0.00 in0.0 mm 0.00 in0.0 mm
03:01 PM 33.4°F0.8°C 33.2°F0.7°C 99% Calm Calm -- 29.59 in1002.0 mb 0.00 in0.0 mm 0.00 in0.0 mm 0.00 in0.0 mm
03:06 PM 33.3°F0.7°C 33.0°F0.6°C 99% Calm Calm -- 29.59 in1002.0 mb 0.00 in0.0 mm 0.00 in0.0 mm 0.00 in0.0 mm
03:11 PM 33.3°F0.7°C 33.0°F0.6°C 99% 1.0 mph SSW1.6 kmh SSW -- 29.60 in1002.4 mb 0.00 in0.0 mm 0.00 in0.0 mm 0.00 in0.0 mm
03:16 PM 32.9°F0.5°C 32.6°F0.3°C 99% Calm Calm -- 29.60 in1002.4 mb 0.00 in0.0 mm 0.00 in0.0 mm 0.00 in0.0 mm
03:21 PM 33.1°F0.6°C 32.8°F0.4°C 99% Calm Calm -- 29.58 in1001.7 mb 0.00 in0.0 mm 0.00 in0.0 mm 0.00 in0.0 mm
03:26 PM 33.3°F0.7°C 33.0°F0.6°C 99% Calm Calm -- 29.59 in1002.0 mb 0.00 in0.0 mm 0.00 in0.0 mm 0.00 in0.0 mm
03:31 PM 33.4°F0.8°C 33.2°F0.7°C 99% Calm Calm -- 29.57 in1001.4 mb 0.00 in0.0 mm 0.00 in0.0 mm 0.00 in0.0 mm
03:36 PM 33.4°F0.8°C 33.2°F0.7°C 99% Calm Calm -- 29.57 in1001.4 mb 0.00 in0.0 mm 0.00 in0.0 mm 0.00 in0.0 mm
03:41 PM 33.8°F1.0°C 33.5°F0.8°C 99% Calm Calm -- 29.57 in1001.4 mb 0.00 in0.0 mm 0.00 in0.0 mm 0.00 in0.0 mm
03:46 PM 33.6°F0.9°C 33.4°F0.8°C 99% Calm Calm -- 29.57 in1001.4 mb 0.00 in0.0 mm 0.00 in0.0 mm 0.00 in0.0 mm
03:51 PM 33.3°F0.7°C 33.0°F0.6°C 99% Calm Calm -- 29.57 in1001.4 mb 0.00 in0.0 mm 0.00 in0.0 mm 0.00 in0.0 mm
03:56 PM 33.3°F0.7°C 33.0°F0.6°C 99% Calm Calm -- 29.56 in1001.0 mb 0.00 in0.0 mm 0.00 in0.0 mm 0.00 in0.0 mm
04:01 PM 33.3°F0.7°C 33.0°F0.6°C 99% Calm Calm -- 29.56 in1001.0 mb 0.00 in0.0 mm 0.00 in0.0 mm 0.00 in0.0 mm
04:06 PM 33.4°F0.8°C 33.2°F0.7°C 99% Calm Calm -- 29.56 in1001.0 mb 0.00 in0.0 mm 0.00 in0.0 mm 0.00 in0.0 mm
04:11 PM 33.4°F0.8°C 33.2°F0.7°C 99% Calm Calm -- 29.57 in1001.4 mb 0.00 in0.0 mm 0.00 in0.0 mm 0.00 in0.0 mm
04:16 PM 34.0°F1.1°C 33.5°F0.8°C 98% Calm Calm -- 29.56 in1001.0 mb 0.00 in0.0 mm 0.00 in0.0 mm 0.00 in0.0 mm
04:21 PM 34.3°F1.3°C 33.6°F0.9°C 97% Calm Calm -- 29.57 in1001.4 mb 0.00 in0.0 mm 0.00 in0.0 mm 0.00 in0.0 mm
04:26 PM 34.7°F1.5°C 33.7°F0.9°C 96% Calm Calm -- 29.56 in1001.0 mb 0.00 in0.0 mm 0.00 in0.0 mm 0.00 in0.0 mm
04:31 PM 35.1°F1.7°C 33.8°F1.0°C 95% Calm Calm -- 29.58 in1001.7 mb 0.00 in0.0 mm 0.00 in0.0 mm 0.00 in0.0 mm
04:36 PM 34.9°F1.6°C 33.6°F0.9°C 95% Calm Calm -- 29.59 in1002.0 mb 0.00 in0.0 mm 0.00 in0.0 mm 0.00 in0.0 mm
04:41 PM 34.9°F1.6°C 33.6°F0.9°C 95% Calm Calm -- 29.60 in1002.4 mb 0.00 in0.0 mm 0.00 in0.0 mm 0.00 in0.0 mm
04:46 PM 34.7°F1.5°C 33.4°F0.8°C 95% Calm Calm -- 29.59 in1002.0 mb 0.01 in0.3 mm 0.12 in3.0 mm 0.01 in0.3 mm
04:51 PM 34.3°F1.3°C 33.0°F0.6°C 95% Calm Calm -- 29.58 in1001.7 mb 0.01 in0.3 mm 0.00 in0.0 mm 0.01 in0.3 mm
04:56 PM 34.2°F1.2°C 33.1°F0.6°C 96% Calm Calm -- 29.57 in1001.4 mb 0.01 in0.3 mm 0.00 in0.0 mm 0.01 in0.3 mm
05:01 PM 33.8°F1.0°C 32.8°F0.4°C 96% Calm Calm -- 29.56 in1001.0 mb 0.02 in0.5 mm 0.01 in0.3 mm 0.02 in0.5 mm
05:06 PM 34.0°F1.1°C 32.9°F0.5°C 96% Calm Calm -- 29.56 in1001.0 mb 0.02 in0.5 mm 0.00 in0.0 mm 0.02 in0.5 mm
05:16 PM 33.6°F0.9°C 32.8°F0.4°C 97% Calm Calm -- 29.56 in1001.0 mb 0.02 in0.5 mm 0.00 in0.0 mm 0.02 in0.5 mm
05:21 PM 33.4°F0.8°C 32.9°F0.5°C 98% Calm Calm -- 29.57 in1001.4 mb 0.02 in0.5 mm 0.00 in0.0 mm 0.02 in0.5 mm
05:26 PM 33.3°F0.7°C 32.7°F0.4°C 98% Calm Calm -- 29.57 in1001.4 mb 0.03 in0.8 mm 0.12 in3.0 mm 0.03 in0.8 mm
05:31 PM 33.1°F0.6°C 32.6°F0.3°C 98% Calm Calm -- 29.58 in1001.7 mb 0.03 in0.8 mm 0.00 in0.0 mm 0.03 in0.8 mm
05:41 PM 32.9°F0.5°C 32.4°F0.2°C 98% Calm Calm -- 29.58 in1001.7 mb 0.03 in0.8 mm 0.00 in0.0 mm 0.03 in0.8 mm
05:46 PM 32.5°F0.3°C 32.3°F0.2°C 99% Calm Calm -- 29.58 in1001.7 mb 0.02 in0.5 mm 0.00 in0.0 mm 0.03 in0.8 mm
05:51 PM 32.4°F0.2°C 32.1°F0.1°C 99% Calm Calm -- 29.59 in1002.0 mb 0.02 in0.5 mm 0.00 in0.0 mm 0.03 in0.8 mm
05:56 PM 32.2°F0.1°C 31.9°F-0.1°C 99% Calm Calm -- 29.59 in1002.0 mb 0.01 in0.3 mm 0.00 in0.0 mm 0.03 in0.8 mm
06:06 PM 32.2°F0.1°C 31.9°F-0.1°C 99% Calm Calm -- 29.60 in1002.4 mb 0.02 in0.5 mm 0.01 in0.3 mm 0.04 in1.0 mm
06:11 PM 32.0°F0.0°C 31.7°F-0.2°C 99% Calm Calm -- 29.59 in1002.0 mb 0.02 in0.5 mm 0.00 in0.0 mm 0.04 in1.0 mm
06:16 PM 32.0°F0.0°C 31.7°F-0.2°C 99% Calm Calm -- 29.60 in1002.4 mb 0.02 in0.5 mm 0.00 in0.0 mm 0.04 in1.0 mm
06:21 PM 32.0°F0.0°C 31.7°F-0.2°C 99% Calm Calm -- 29.60 in1002.4 mb 0.02 in0.5 mm 0.00 in0.0 mm 0.04 in1.0 mm
06:26 PM 31.8°F-0.1°C 31.6°F-0.2°C 99% Calm Calm -- 29.60 in1002.4 mb 0.01 in0.3 mm 0.00 in0.0 mm 0.04 in1.0 mm
06:31 PM 31.8°F-0.1°C 31.6°F-0.2°C 99% Calm Calm -- 29.59 in1002.0 mb 0.01 in0.3 mm 0.00 in0.0 mm 0.04 in1.0 mm
06:41 PM 31.8°F-0.1°C 31.6°F-0.2°C 99% Calm Calm -- 29.59 in1002.0 mb 0.01 in0.3 mm 0.00 in0.0 mm 0.04 in1.0 mm
06:46 PM 31.8°F-0.1°C 31.6°F-0.2°C 99% Calm Calm -- 29.59 in1002.0 mb 0.01 in0.3 mm 0.00 in0.0 mm 0.04 in1.0 mm
06:51 PM 31.8°F-0.1°C 31.6°F-0.2°C 99% Calm Calm -- 29.59 in1002.0 mb 0.01 in0.3 mm 0.00 in0.0 mm 0.04 in1.0 mm
06:56 PM 31.8°F-0.1°C 31.6°F-0.2°C 99% Calm Calm -- 29.60 in1002.4 mb 0.01 in0.3 mm 0.00 in0.0 mm 0.04 in1.0 mm
07:06 PM 31.8°F-0.1°C 31.6°F-0.2°C 99% Calm Calm -- 29.60 in1002.4 mb 0.00 in0.0 mm 0.00 in0.0 mm 0.04 in1.0 mm
07:11 PM 31.8°F-0.1°C 31.6°F-0.2°C 99% Calm Calm -- 29.60 in1002.4 mb 0.00 in0.0 mm 0.00 in0.0 mm 0.04 in1.0 mm
07:16 PM 32.0°F0.0°C 31.7°F-0.2°C 99% Calm Calm -- 29.60 in1002.4 mb 0.00 in0.0 mm 0.00 in0.0 mm 0.04 in1.0 mm
07:21 PM 31.8°F-0.1°C 31.6°F-0.2°C 99% Calm Calm -- 29.60 in1002.4 mb 0.00 in0.0 mm 0.00 in0.0 mm 0.04 in1.0 mm
07:26 PM 31.8°F-0.1°C 31.6°F-0.2°C 99% Calm Calm -- 29.60 in1002.4 mb 0.00 in0.0 mm 0.00 in0.0 mm 0.04 in1.0 mm
07:31 PM 31.8°F-0.1°C 31.6°F-0.2°C 99% Calm Calm -- 29.61 in1002.7 mb 0.00 in0.0 mm 0.00 in0.0 mm 0.04 in1.0 mm
07:36 PM 31.6°F-0.2°C 31.4°F-0.3°C 99% Calm Calm -- 29.61 in1002.7 mb 0.00 in0.0 mm 0.00 in0.0 mm 0.04 in1.0 mm
07:41 PM 31.6°F-0.2°C 31.4°F-0.3°C 99% Calm Calm -- 29.61 in1002.7 mb 0.00 in0.0 mm 0.00 in0.0 mm 0.04 in1.0 mm
07:46 PM 31.6°F-0.2°C 31.4°F-0.3°C 99% Calm Calm -- 29.60 in1002.4 mb 0.01 in0.3 mm 0.12 in3.0 mm 0.05 in1.3 mm
07:51 PM 31.6°F-0.2°C 31.4°F-0.3°C 99% Calm Calm -- 29.59 in1002.0 mb 0.01 in0.3 mm 0.00 in0.0 mm 0.05 in1.3 mm
07:56 PM 31.6°F-0.2°C 31.4°F-0.3°C 99% Calm Calm -- 29.60 in1002.4 mb 0.01 in0.3 mm 0.00 in0.0 mm 0.05 in1.3 mm
08:01 PM 31.5°F-0.3°C 31.2°F-0.4°C 99% Calm Calm -- 29.60 in1002.4 mb 0.01 in0.3 mm 0.00 in0.0 mm 0.05 in1.3 mm
08:06 PM 31.5°F-0.3°C 31.2°F-0.4°C 99% Calm Calm -- 29.60 in1002.4 mb 0.01 in0.3 mm 0.00 in0.0 mm 0.05 in1.3 mm
08:11 PM 31.5°F-0.3°C 31.2°F-0.4°C 99% Calm Calm -- 29.60 in1002.4 mb 0.01 in0.3 mm 0.00 in0.0 mm 0.05 in1.3 mm
08:16 PM 31.5°F-0.3°C 31.2°F-0.4°C 99% Calm Calm -- 29.59 in1002.0 mb 0.01 in0.3 mm 0.00 in0.0 mm 0.05 in1.3 mm
08:21 PM 31.5°F-0.3°C 31.2°F-0.4°C 99% Calm Calm -- 29.59 in1002.0 mb 0.01 in0.3 mm 0.00 in0.0 mm 0.05 in1.3 mm
08:26 PM 31.5°F-0.3°C 31.2°F-0.4°C 99% Calm Calm -- 29.59 in1002.0 mb 0.01 in0.3 mm 0.00 in0.0 mm 0.05 in1.3 mm
08:31 PM 31.5°F-0.3°C 31.2°F-0.4°C 99% Calm Calm -- 29.61 in1002.7 mb 0.01 in0.3 mm 0.00 in0.0 mm 0.05 in1.3 mm
08:36 PM 31.5°F-0.3°C 31.2°F-0.4°C 99% Calm Calm -- 29.62 in1003.0 mb 0.01 in0.3 mm 0.00 in0.0 mm 0.05 in1.3 mm
08:41 PM 31.3°F-0.4°C 31.0°F-0.6°C 99% Calm Calm -- 29.62 in1003.0 mb 0.01 in0.3 mm 0.00 in0.0 mm 0.05 in1.3 mm
08:46 PM 31.5°F-0.3°C 31.2°F-0.4°C 99% Calm Calm -- 29.62 in1003.0 mb 0.00 in0.0 mm 0.00 in0.0 mm 0.05 in1.3 mm
08:51 PM 31.3°F-0.4°C 31.0°F-0.6°C 99% Calm Calm -- 29.62 in1003.0 mb 0.00 in0.0 mm 0.00 in0.0 mm 0.05 in1.3 mm
08:56 PM 31.3°F-0.4°C 31.0°F-0.6°C 99% Calm Calm -- 29.62 in1003.0 mb 0.00 in0.0 mm 0.00 in0.0 mm 0.05 in1.3 mm
09:01 PM 31.3°F-0.4°C 31.0°F-0.6°C 99% Calm Calm -- 29.61 in1002.7 mb 0.00 in0.0 mm 0.00 in0.0 mm 0.05 in1.3 mm
09:06 PM 31.3°F-0.4°C 31.0°F-0.6°C 99% Calm Calm -- 29.61 in1002.7 mb 0.00 in0.0 mm 0.00 in0.0 mm 0.05 in1.3 mm
09:11 PM 31.1°F-0.5°C 30.8°F-0.7°C 99% Calm Calm -- 29.61 in1002.7 mb 0.00 in0.0 mm 0.00 in0.0 mm 0.05 in1.3 mm
09:16 PM 31.1°F-0.5°C 30.8°F-0.7°C 99% Calm Calm -- 29.61 in1002.7 mb 0.00 in0.0 mm 0.00 in0.0 mm 0.05 in1.3 mm
09:21 PM 31.1°F-0.5°C 30.8°F-0.7°C 99% Calm Calm -- 29.61 in1002.7 mb 0.00 in0.0 mm 0.00 in0.0 mm 0.05 in1.3 mm
09:26 PM 30.9°F-0.6°C 30.7°F-0.7°C 99% Calm Calm -- 29.61 in1002.7 mb 0.00 in0.0 mm 0.00 in0.0 mm 0.05 in1.3 mm
09:31 PM 30.2°F-1.0°C 29.9°F-1.2°C 99% 1.0 mph ESE1.6 kmh ESE -- 29.61 in1002.7 mb 0.00 in0.0 mm 0.00 in0.0 mm 0.05 in1.3 mm
09:36 PM 29.7°F-1.3°C 29.4°F-1.4°C 99% Calm Calm -- 29.62 in1003.0 mb 0.00 in0.0 mm 0.00 in0.0 mm 0.05 in1.3 mm
09:41 PM 28.9°F-1.7°C 28.7°F-1.8°C 99% 2.0 mph SSW3.2 kmh SSW -- 29.61 in1002.7 mb 0.00 in0.0 mm 0.00 in0.0 mm 0.05 in1.3 mm
09:46 PM 28.8°F-1.8°C 28.5°F-1.9°C 99% 1.0 mph W1.6 kmh W -- 29.61 in1002.7 mb 0.00 in0.0 mm 0.00 in0.0 mm 0.05 in1.3 mm
09:51 PM 28.2°F-2.1°C 28.0°F-2.2°C 99% 1.0 mph W1.6 kmh W -- 29.62 in1003.0 mb 0.00 in0.0 mm 0.00 in0.0 mm 0.05 in1.3 mm
09:56 PM 27.9°F-2.3°C 27.6°F-2.4°C 99% 1.0 mph W1.6 kmh W -- 29.63 in1003.4 mb 0.00 in0.0 mm 0.00 in0.0 mm 0.05 in1.3 mm
10:01 PM 27.5°F-2.5°C 27.3°F-2.6°C 99% 2.0 mph SSW3.2 kmh SSW -- 29.63 in1003.4 mb 0.00 in0.0 mm 0.00 in0.0 mm 0.05 in1.3 mm
10:06 PM 27.1°F-2.7°C 26.9°F-2.8°C 99% 2.0 mph WSW3.2 kmh WSW -- 29.63 in1003.4 mb 0.00 in0.0 mm 0.00 in0.0 mm 0.05 in1.3 mm
10:11 PM 27.0°F-2.8°C 26.5°F-3.1°C 98% 2.0 mph W3.2 kmh W -- 29.63 in1003.4 mb 0.00 in0.0 mm 0.00 in0.0 mm 0.05 in1.3 mm
10:16 PM 26.8°F-2.9°C 26.3°F-3.2°C 98% 1.0 mph E1.6 kmh E -- 29.64 in1003.7 mb 0.00 in0.0 mm 0.00 in0.0 mm 0.05 in1.3 mm
10:21 PM 26.6°F-3.0°C 26.1°F-3.3°C 98% 2.0 mph NNW3.2 kmh NNW -- 29.64 in1003.7 mb 0.00 in0.0 mm 0.00 in0.0 mm 0.05 in1.3 mm
10:26 PM 26.4°F-3.1°C 25.9°F-3.4°C 98% 2.0 mph SE3.2 kmh SE -- 29.64 in1003.7 mb 0.00 in0.0 mm 0.00 in0.0 mm 0.05 in1.3 mm
10:31 PM 26.2°F-3.2°C 25.7°F-3.5°C 98% 1.0 mph W1.6 kmh W -- 29.65 in1004.1 mb 0.00 in0.0 mm 0.00 in0.0 mm 0.05 in1.3 mm
10:36 PM 26.1°F-3.3°C 25.8°F-3.4°C 99% 2.0 mph S3.2 kmh S -- 29.65 in1004.1 mb 0.00 in0.0 mm 0.00 in0.0 mm 0.05 in1.3 mm
10:41 PM 25.7°F-3.5°C 25.5°F-3.6°C 99% Calm Calm -- 29.65 in1004.1 mb 0.00 in0.0 mm 0.00 in0.0 mm 0.05 in1.3 mm
10:46 PM 25.5°F-3.6°C 25.3°F-3.7°C 99% Calm Calm -- 29.66 in1004.4 mb 0.00 in0.0 mm 0.00 in0.0 mm 0.05 in1.3 mm
10:51 PM 25.3°F-3.7°C 25.1°F-3.8°C 99% Calm Calm -- 29.66 in1004.4 mb 0.00 in0.0 mm 0.00 in0.0 mm 0.05 in1.3 mm
10:56 PM 25.3°F-3.7°C 25.1°F-3.8°C 99% Calm Calm -- 29.66 in1004.4 mb 0.00 in0.0 mm 0.00 in0.0 mm 0.05 in1.3 mm
11:01 PM 25.3°F-3.7°C 25.1°F-3.8°C 99% Calm Calm -- 29.67 in1004.7 mb 0.00 in0.0 mm 0.00 in0.0 mm 0.05 in1.3 mm
11:06 PM 25.2°F-3.8°C 24.9°F-3.9°C 99% Calm Calm -- 29.67 in1004.7 mb 0.00 in0.0 mm 0.00 in0.0 mm 0.05 in1.3 mm
11:11 PM 25.0°F-3.9°C 24.7°F-4.1°C 99% Calm Calm -- 29.67 in1004.7 mb 0.00 in0.0 mm 0.00 in0.0 mm 0.05 in1.3 mm
11:16 PM 24.8°F-4.0°C 24.3°F-4.3°C 98% Calm Calm -- 29.68 in1005.1 mb 0.00 in0.0 mm 0.00 in0.0 mm 0.05 in1.3 mm
11:21 PM 24.6°F-4.1°C 23.9°F-4.5°C 97% Calm Calm -- 29.68 in1005.1 mb 0.00 in0.0 mm 0.00 in0.0 mm 0.05 in1.3 mm
11:26 PM 24.3°F-4.3°C 23.3°F-4.8°C 96% Calm Calm -- 29.68 in1005.1 mb 0.00 in0.0 mm 0.00 in0.0 mm 0.05 in1.3 mm
11:31 PM 24.3°F-4.3°C 23.5°F-4.7°C 97% Calm Calm -- 29.68 in1005.1 mb 0.00 in0.0 mm 0.00 in0.0 mm 0.05 in1.3 mm
11:36 PM 24.1°F-4.4°C 23.3°F-4.8°C 97% Calm Calm -- 29.68 in1005.1 mb 0.00 in0.0 mm 0.00 in0.0 mm 0.05 in1.3 mm
11:41 PM 23.9°F-4.5°C 23.2°F-4.9°C 97% Calm Calm -- 29.68 in1005.1 mb 0.00 in0.0 mm 0.00 in0.0 mm 0.05 in1.3 mm
11:46 PM 23.7°F-4.6°C 22.7°F-5.2°C 96% Calm Calm -- 29.68 in1005.1 mb 0.00 in0.0 mm 0.00 in0.0 mm 0.05 in1.3 mm
11:51 PM 23.4°F-4.8°C 22.4°F-5.3°C 96% Calm Calm -- 29.68 in1005.1 mb 0.00 in0.0 mm 0.00 in0.0 mm 0.05 in1.3 mm
11:56 PM 23.2°F-4.9°C 22.2°F-5.4°C 96% Calm Calm -- 29.69 in1005.4 mb 0.00 in0.0 mm 0.00 in0.0 mm 0.05 in1.3 mm